sensor_id;sensor_type;location;lat;lon;timestamp;pressure;altitude;pressure_sealevel;temperature;humidity
33422;BME280;19763;55.798;37.782;2023-08-12T00:00:19;38109.13;;;-145.63;49.50
33422;BME280;19763;55.798;37.782;2023-08-12T00:02:46;38091.53;;;-145.63;49.57
33422;BME280;19763;55.798;37.782;2023-08-12T00:05:12;38093.50;;;-145.63;49.67
33422;BME280;19763;55.798;37.782;2023-08-12T00:07:39;38056.34;;;-145.63;49.75
33422;BME280;19763;55.798;37.782;2023-08-12T00:10:10;38083.72;;;-145.63;50.19
33422;BME280;19763;55.798;37.782;2023-08-12T00:12:37;38066.13;;;-145.63;49.55
33422;BME280;19763;55.798;37.782;2023-08-12T00:15:04;38064.16;;;-145.63;49.95
33422;BME280;19763;55.798;37.782;2023-08-12T00:17:32;38085.66;;;-145.63;49.89
33422;BME280;19763;55.798;37.782;2023-08-12T00:19:59;38023.09;;;-145.63;49.87
33422;BME280;19763;55.798;37.782;2023-08-12T00:22:25;38120.88;;;-145.63;50.39
33422;BME280;19763;55.798;37.782;2023-08-12T00:24:51;38130.63;;;-145.63;50.49
33422;BME280;19763;55.798;37.782;2023-08-12T00:27:17;38089.56;;;-145.63;50.33
33422;BME280;19763;55.798;37.782;2023-08-12T00:29:43;38066.13;;;-145.63;50.26
33422;BME280;19763;55.798;37.782;2023-08-12T00:32:09;38113.03;;;-145.63;50.64
33422;BME280;19763;55.798;37.782;2023-08-12T00:34:35;38140.41;;;-145.63;50.73
33422;BME280;19763;55.798;37.782;2023-08-12T00:37:01;38124.78;;;-145.63;51.05
33422;BME280;19763;55.798;37.782;2023-08-12T00:39:27;38138.47;;;-145.63;51.04
33422;BME280;19763;55.798;37.782;2023-08-12T00:41:52;38152.16;;;-145.63;50.80
33422;BME280;19763;55.798;37.782;2023-08-12T00:44:18;38173.66;;;-145.63;50.91
33422;BME280;19763;55.798;37.782;2023-08-12T00:46:44;38169.75;;;-145.63;51.03
33422;BME280;19763;55.798;37.782;2023-08-12T00:49:10;38115.00;;;-145.63;50.95
33422;BME280;19763;55.798;37.782;2023-08-12T00:51:39;38183.44;;;-145.63;51.25
33422;BME280;19763;55.798;37.782;2023-08-12T00:54:08;38159.97;;;-145.63;50.94
33422;BME280;19763;55.798;37.782;2023-08-12T00:56:35;38185.38;;;-145.63;50.74
33422;BME280;19763;55.798;37.782;2023-08-12T00:59:02;38140.41;;;-145.63;50.74
33422;BME280;19763;55.798;37.782;2023-08-12T01:01:30;38118.91;;;-145.63;50.51
33422;BME280;19763;55.798;37.782;2023-08-12T01:03:56;38128.69;;;-145.63;50.26
33422;BME280;19763;55.798;37.782;2023-08-12T01:06:23;38138.47;;;-145.63;50.59
33422;BME280;19763;55.798;37.782;2023-08-12T01:08:49;38122.81;;;-145.63;50.22
33422;BME280;19763;55.798;37.782;2023-08-12T01:14:14;38148.22;;;-145.63;50.74
33422;BME280;19763;55.798;37.782;2023-08-12T01:16:47;38015.28;;;-145.63;50.82
33422;BME280;19763;55.798;37.782;2023-08-12T01:19:35;38152.16;;;-145.63;51.23
33422;BME280;19763;55.798;37.782;2023-08-12T01:22:03;38185.38;;;-145.63;51.48
33422;BME280;19763;55.798;37.782;2023-08-12T01:24:39;38156.06;;;-145.63;51.24
33422;BME280;19763;55.798;37.782;2023-08-12T01:27:07;38165.84;;;-145.63;50.97
33422;BME280;19763;55.798;37.782;2023-08-12T01:29:33;38152.16;;;-145.63;51.12
33422;BME280;19763;55.798;37.782;2023-08-12T01:35:03;38171.69;;;-145.63;51.46
33422;BME280;19763;55.798;37.782;2023-08-12T01:37:33;38183.44;;;-145.63;50.98
33422;BME280;19763;55.798;37.782;2023-08-12T01:40:02;38183.44;;;-145.63;51.22
33422;BME280;19763;55.798;37.782;2023-08-12T01:42:34;38152.16;;;-145.63;50.80
33422;BME280;19763;55.798;37.782;2023-08-12T01:45:01;38140.41;;;-145.63;50.89
33422;BME280;19763;55.798;37.782;2023-08-12T01:47:31;38154.09;;;-145.63;50.68
33422;BME280;19763;55.798;37.782;2023-08-12T01:49:57;38140.41;;;-145.63;50.85
33422;BME280;19763;55.798;37.782;2023-08-12T01:52:24;38183.44;;;-145.63;50.47
33422;BME280;19763;55.798;37.782;2023-08-12T01:54:49;38146.28;;;-145.63;50.38
33422;BME280;19763;55.798;37.782;2023-08-12T01:57:15;38191.25;;;-145.63;50.45
33422;BME280;19763;55.798;37.782;2023-08-12T01:59:41;38195.16;;;-145.63;51.47
33422;BME280;19763;55.798;37.782;2023-08-12T02:02:08;38163.88;;;-145.63;50.79
33422;BME280;19763;55.798;37.782;2023-08-12T02:04:34;38206.88;;;-145.63;51.73
33422;BME280;19763;55.798;37.782;2023-08-12T02:07:02;38163.88;;;-145.63;52.31
33422;BME280;19763;55.798;37.782;2023-08-12T02:09:27;38202.97;;;-145.63;52.08
33422;BME280;19763;55.798;37.782;2023-08-12T02:11:53;38208.84;;;-145.63;52.11
33422;BME280;19763;55.798;37.782;2023-08-12T02:14:19;38206.88;;;-145.63;51.40
33422;BME280;19763;55.798;37.782;2023-08-12T02:16:44;38269.47;;;-145.63;51.23
33422;BME280;19763;55.798;37.782;2023-08-12T02:19:10;38279.22;;;-145.63;50.88
33422;BME280;19763;55.798;37.782;2023-08-12T02:21:36;38197.13;;;-145.63;51.02
33422;BME280;19763;55.798;37.782;2023-08-12T02:24:02;38179.50;;;-145.63;51.01
33422;BME280;19763;55.798;37.782;2023-08-12T02:26:27;38202.97;;;-145.63;51.16
33422;BME280;19763;55.798;37.782;2023-08-12T02:28:53;38183.44;;;-145.63;50.71
33422;BME280;19763;55.798;37.782;2023-08-12T02:31:19;38232.31;;;-145.63;50.76
33422;BME280;19763;55.798;37.782;2023-08-12T02:33:44;38204.94;;;-145.63;51.04
33422;BME280;19763;55.798;37.782;2023-08-12T02:36:10;38236.22;;;-145.63;51.01
33422;BME280;19763;55.798;37.782;2023-08-12T02:38:35;38222.53;;;-145.63;51.08
33422;BME280;19763;55.798;37.782;2023-08-12T02:41:01;38244.03;;;-145.63;50.94
33422;BME280;19763;55.798;37.782;2023-08-12T02:43:27;38275.31;;;-145.63;51.16
33422;BME280;19763;55.798;37.782;2023-08-12T02:45:53;38236.22;;;-145.63;51.32
33422;BME280;19763;55.798;37.782;2023-08-12T02:48:18;38261.63;;;-145.63;51.32
33422;BME280;19763;55.798;37.782;2023-08-12T02:50:44;38234.25;;;-145.63;51.26
33422;BME280;19763;55.798;37.782;2023-08-12T02:53:10;38285.09;;;-145.63;51.45
33422;BME280;19763;55.798;37.782;2023-08-12T02:55:35;38281.19;;;-145.63;51.67
33422;BME280;19763;55.798;37.782;2023-08-12T02:58:03;38247.94;;;-145.63;51.25
33422;BME280;19763;55.798;37.782;2023-08-12T03:00:29;38246.00;;;-145.63;51.08
33422;BME280;19763;55.798;37.782;2023-08-12T03:02:55;38290.97;;;-145.63;51.14
33422;BME280;19763;55.798;37.782;2023-08-12T03:05:21;38304.66;;;-145.63;50.97
33422;BME280;19763;55.798;37.782;2023-08-12T03:07:49;38312.47;;;-145.63;50.95
33422;BME280;19763;55.798;37.782;2023-08-12T03:10:14;38320.28;;;-145.63;51.29
33422;BME280;19763;55.798;37.782;2023-08-12T03:12:40;38332.03;;;-145.63;51.40
33422;BME280;19763;55.798;37.782;2023-08-12T03:15:07;38337.88;;;-145.63;51.18
33422;BME280;19763;55.798;37.782;2023-08-12T03:17:33;38277.28;;;-145.63;51.02
33422;BME280;19763;55.798;37.782;2023-08-12T03:19:59;38300.75;;;-145.63;50.59
33422;BME280;19763;55.798;37.782;2023-08-12T03:22:26;38279.22;;;-145.63;50.36
33422;BME280;19763;55.798;37.782;2023-08-12T03:24:52;38275.31;;;-145.63;50.47
33422;BME280;19763;55.798;37.782;2023-08-12T03:27:18;38273.38;;;-145.63;50.02
33422;BME280;19763;55.798;37.782;2023-08-12T03:29:44;38290.97;;;-145.63;50.08
33422;BME280;19763;55.798;37.782;2023-08-12T03:32:09;38244.03;;;-145.63;50.32
33422;BME280;19763;55.798;37.782;2023-08-12T03:34:35;38226.44;;;-145.63;49.97
33422;BME280;19763;55.798;37.782;2023-08-12T03:37:01;38259.69;;;-145.63;49.83
33422;BME280;19763;55.798;37.782;2023-08-12T03:39:26;38253.81;;;-145.63;49.80
33422;BME280;19763;55.798;37.782;2023-08-12T03:41:52;38247.94;;;-145.63;49.74
33422;BME280;19763;55.798;37.782;2023-08-12T03:44:18;38247.94;;;-145.63;49.61
33422;BME280;19763;55.798;37.782;2023-08-12T03:46:44;38267.50;;;-145.63;49.57
33422;BME280;19763;55.798;37.782;2023-08-12T03:49:10;38263.59;;;-145.63;49.61
33422;BME280;19763;55.798;37.782;2023-08-12T03:51:35;38218.63;;;-145.63;49.56
33422;BME280;19763;55.798;37.782;2023-08-12T03:54:01;38292.91;;;-145.63;49.74
33422;BME280;19763;55.798;37.782;2023-08-12T03:56:27;38255.78;;;-145.63;49.83
33422;BME280;19763;55.798;37.782;2023-08-12T03:58:53;38273.38;;;-145.63;49.38
33422;BME280;19763;55.798;37.782;2023-08-12T04:01:18;38263.59;;;-145.63;49.90
33422;BME280;19763;55.798;37.782;2023-08-12T04:03:44;38273.38;;;-145.63;49.74
33422;BME280;19763;55.798;37.782;2023-08-12T04:06:09;38230.34;;;-145.63;49.84
33422;BME280;19763;55.798;37.782;2023-08-12T04:08:35;38259.69;;;-145.63;50.24
33422;BME280;19763;55.798;37.782;2023-08-12T04:11:01;38242.09;;;-145.63;50.01
33422;BME280;19763;55.798;37.782;2023-08-12T04:13:26;38253.81;;;-145.63;49.75
33422;BME280;19763;55.798;37.782;2023-08-12T04:15:52;38226.44;;;-145.63;49.91
33422;BME280;19763;55.798;37.782;2023-08-12T04:18:21;38285.09;;;-145.63;50.30
33422;BME280;19763;55.798;37.782;2023-08-12T04:20:51;38304.66;;;-145.63;50.30
33422;BME280;19763;55.798;37.782;2023-08-12T04:23:17;38281.19;;;-145.63;50.26
33422;BME280;19763;55.798;37.782;2023-08-12T04:25:45;38289.00;;;-145.63;50.04
33422;BME280;19763;55.798;37.782;2023-08-12T04:28:11;38234.25;;;-145.63;49.61
33422;BME280;19763;55.798;37.782;2023-08-12T04:30:44;38247.94;;;-145.63;49.20
33422;BME280;19763;55.798;37.782;2023-08-12T04:33:10;38222.53;;;-145.63;49.10
33422;BME280;19763;55.798;37.782;2023-08-12T04:35:36;38269.47;;;-145.63;49.13
33422;BME280;19763;55.798;37.782;2023-08-12T04:38:02;38214.72;;;-145.63;49.17
33422;BME280;19763;55.798;37.782;2023-08-12T04:40:28;38193.19;;;-145.63;48.89
33422;BME280;19763;55.798;37.782;2023-08-12T04:42:54;38273.38;;;-145.63;49.25
33422;BME280;19763;55.798;37.782;2023-08-12T04:45:19;38199.06;;;-145.63;49.10
33422;BME280;19763;55.798;37.782;2023-08-12T04:47:45;38224.47;;;-145.63;49.09
33422;BME280;19763;55.798;37.782;2023-08-12T04:50:11;38220.56;;;-145.63;49.34
33422;BME280;19763;55.798;37.782;2023-08-12T04:52:37;38302.69;;;-145.63;49.17
33422;BME280;19763;55.798;37.782;2023-08-12T04:55:02;38312.47;;;-145.63;49.40
33422;BME280;19763;55.798;37.782;2023-08-12T04:57:29;38246.00;;;-145.63;49.00
33422;BME280;19763;55.798;37.782;2023-08-12T04:59:55;38238.16;;;-145.63;48.43
33422;BME280;19763;55.798;37.782;2023-08-12T05:02:21;38240.13;;;-145.63;48.65
33422;BME280;19763;55.798;37.782;2023-08-12T05:04:51;38246.00;;;-145.63;48.35
33422;BME280;19763;55.798;37.782;2023-08-12T05:07:17;38218.63;;;-145.63;48.61
33422;BME280;19763;55.798;37.782;2023-08-12T05:09:43;38289.00;;;-145.63;48.78
33422;BME280;19763;55.798;37.782;2023-08-12T05:12:10;38314.44;;;-145.63;49.10
33422;BME280;19763;55.798;37.782;2023-08-12T05:14:37;38253.81;;;-145.63;49.29
33422;BME280;19763;55.798;37.782;2023-08-12T05:17:03;38234.25;;;-145.63;48.98
33422;BME280;19763;55.798;37.782;2023-08-12T05:19:28;38224.47;;;-145.63;49.00
33422;BME280;19763;55.798;37.782;2023-08-12T05:21:54;38322.25;;;-145.63;47.53
33422;BME280;19763;55.798;37.782;2023-08-12T05:24:20;38287.06;;;-145.63;48.69
33422;BME280;19763;55.798;37.782;2023-08-12T05:26:47;38292.91;;;-145.63;49.53
33422;BME280;19763;55.798;37.782;2023-08-12T05:29:12;38335.94;;;-145.63;50.03
33422;BME280;19763;55.798;37.782;2023-08-12T05:31:38;38320.28;;;-145.63;50.07
33422;BME280;19763;55.798;37.782;2023-08-12T05:34:04;38361.34;;;-145.63;50.43
33422;BME280;19763;55.798;37.782;2023-08-12T05:36:30;38308.56;;;-145.63;50.05
33422;BME280;19763;55.798;37.782;2023-08-12T05:38:55;38345.72;;;-145.63;50.81
33422;BME280;19763;55.798;37.782;2023-08-12T05:41:21;38308.56;;;-145.63;51.08
33422;BME280;19763;55.798;37.782;2023-08-12T05:43:48;38351.56;;;-145.63;51.22
33422;BME280;19763;55.798;37.782;2023-08-12T05:46:13;38287.06;;;-145.63;51.33
33422;BME280;19763;55.798;37.782;2023-08-12T05:48:39;38290.97;;;-145.63;50.94
33422;BME280;19763;55.798;37.782;2023-08-12T05:51:05;38328.13;;;-145.63;51.47
33422;BME280;19763;55.798;37.782;2023-08-12T05:53:30;38298.78;;;-145.63;51.20
33422;BME280;19763;55.798;37.782;2023-08-12T05:55:57;38337.88;;;-145.63;50.70
33422;BME280;19763;55.798;37.782;2023-08-12T05:58:23;38347.66;;;-145.63;51.32
33422;BME280;19763;55.798;37.782;2023-08-12T06:00:48;38316.38;;;-145.63;51.19
33422;BME280;19763;55.798;37.782;2023-08-12T06:03:14;38290.97;;;-145.63;50.51
33422;BME280;19763;55.798;37.782;2023-08-12T06:05:40;38349.63;;;-145.63;50.45
33422;BME280;19763;55.798;37.782;2023-08-12T06:08:06;38312.47;;;-145.63;50.70
33422;BME280;19763;55.798;37.782;2023-08-12T06:10:33;38330.06;;;-145.63;50.97
33422;BME280;19763;55.798;37.782;2023-08-12T06:12:59;38355.50;;;-145.63;51.18
33422;BME280;19763;55.798;37.782;2023-08-12T06:15:24;38324.19;;;-145.63;50.22
33422;BME280;19763;55.798;37.782;2023-08-12T06:17:50;38310.50;;;-145.63;50.26
33422;BME280;19763;55.798;37.782;2023-08-12T06:20:16;38316.38;;;-145.63;50.55
33422;BME280;19763;55.798;37.782;2023-08-12T06:22:42;38308.56;;;-145.63;50.19
33422;BME280;19763;55.798;37.782;2023-08-12T06:25:08;38326.16;;;-145.63;50.37
33422;BME280;19763;55.798;37.782;2023-08-12T06:27:33;38343.75;;;-145.63;49.77
33422;BME280;19763;55.798;37.782;2023-08-12T06:29:59;38328.13;;;-145.63;49.41
33422;BME280;19763;55.798;37.782;2023-08-12T06:32:25;38322.25;;;-145.63;49.46
33422;BME280;19763;55.798;37.782;2023-08-12T06:34:50;38298.78;;;-145.63;49.60
33422;BME280;19763;55.798;37.782;2023-08-12T06:37:16;38304.66;;;-145.63;49.21
33422;BME280;19763;55.798;37.782;2023-08-12T06:39:42;38269.47;;;-145.63;49.18
33422;BME280;19763;55.798;37.782;2023-08-12T06:42:08;38296.81;;;-145.63;48.22
33422;BME280;19763;55.798;37.782;2023-08-12T06:44:33;38236.22;;;-145.63;47.97
33422;BME280;19763;55.798;37.782;2023-08-12T06:46:59;38244.03;;;-145.63;47.62
33422;BME280;19763;55.798;37.782;2023-08-12T06:49:24;38179.50;;;-145.63;47.30
33422;BME280;19763;55.798;37.782;2023-08-12T06:51:50;38197.13;;;-145.63;46.69
33422;BME280;19763;55.798;37.782;2023-08-12T06:54:16;38257.72;;;-145.63;46.48
33422;BME280;19763;55.798;37.782;2023-08-12T06:56:41;38208.84;;;-145.63;46.65
33422;BME280;19763;55.798;37.782;2023-08-12T06:59:07;38191.25;;;-145.63;46.50
33422;BME280;19763;55.798;37.782;2023-08-12T07:01:33;38210.81;;;-145.63;46.66
33422;BME280;19763;55.798;37.782;2023-08-12T07:03:58;38189.28;;;-145.63;46.88
33422;BME280;19763;55.798;37.782;2023-08-12T07:06:24;38171.69;;;-145.63;46.63
33422;BME280;19763;55.798;37.782;2023-08-12T07:08:50;38136.50;;;-145.63;46.01
33422;BME280;19763;55.798;37.782;2023-08-12T07:11:15;38132.59;;;-145.63;46.31
33422;BME280;19763;55.798;37.782;2023-08-12T07:13:41;38038.75;;;-145.63;45.41
33422;BME280;19763;55.798;37.782;2023-08-12T07:16:08;38148.22;;;-145.63;45.29
33422;BME280;19763;55.798;37.782;2023-08-12T07:18:33;38109.13;;;-145.63;45.68
33422;BME280;19763;55.798;37.782;2023-08-12T07:20:59;38042.66;;;-145.63;45.09
33422;BME280;19763;55.798;37.782;2023-08-12T07:23:25;37788.50;;;-145.63;43.89
33422;BME280;19763;55.798;37.782;2023-08-12T07:25:51;38048.53;;;-145.63;43.72
33422;BME280;19763;55.798;37.782;2023-08-12T07:28:16;37989.88;;;-145.63;43.65
33422;BME280;19763;55.798;37.782;2023-08-12T07:30:42;38017.25;;;-145.63;43.07
33422;BME280;19763;55.798;37.782;2023-08-12T07:33:08;38023.09;;;-145.63;43.25
33422;BME280;19763;55.798;37.782;2023-08-12T07:35:34;37987.91;;;-145.63;42.83
33422;BME280;19763;55.798;37.782;2023-08-12T07:37:59;37991.81;;;-145.63;43.26
33422;BME280;19763;55.798;37.782;2023-08-12T07:40:25;37952.72;;;-145.63;43.35
33422;BME280;19763;55.798;37.782;2023-08-12T07:42:51;37991.81;;;-145.63;43.31
33422;BME280;19763;55.798;37.782;2023-08-12T07:45:17;37989.88;;;-145.63;42.94
33422;BME280;19763;55.798;37.782;2023-08-12T07:47:43;37954.69;;;-145.63;42.94
33422;BME280;19763;55.798;37.782;2023-08-12T07:50:09;37982.03;;;-145.63;42.87
33422;BME280;19763;55.798;37.782;2023-08-12T07:52:36;37964.44;;;-145.63;42.94
33422;BME280;19763;55.798;37.782;2023-08-12T07:55:02;38023.09;;;-145.63;43.09
33422;BME280;19763;55.798;37.782;2023-08-12T07:57:29;38007.47;;;-145.63;43.11
33422;BME280;19763;55.798;37.782;2023-08-12T07:59:54;37944.91;;;-145.63;43.34
33422;BME280;19763;55.798;37.782;2023-08-12T08:02:20;37954.69;;;-145.63;43.23
33422;BME280;19763;55.798;37.782;2023-08-12T08:04:46;37827.59;;;-145.63;43.45
33422;BME280;19763;55.798;37.782;2023-08-12T08:07:15;38077.84;;;-145.63;43.82
33422;BME280;19763;55.798;37.782;2023-08-12T08:09:42;38034.84;;;-145.63;44.42
33422;BME280;19763;55.798;37.782;2023-08-12T08:12:09;38042.66;;;-145.63;44.84
33422;BME280;19763;55.798;37.782;2023-08-12T08:14:34;38054.38;;;-145.63;44.82
33422;BME280;19763;55.798;37.782;2023-08-12T08:17:00;38081.75;;;-145.63;45.37
33422;BME280;19763;55.798;37.782;2023-08-12T08:19:26;38113.03;;;-145.63;45.49
33422;BME280;19763;55.798;37.782;2023-08-12T08:21:52;38097.41;;;-145.63;46.21
33422;BME280;19763;55.798;37.782;2023-08-12T08:24:17;38093.50;;;-145.63;46.74
33422;BME280;19763;55.798;37.782;2023-08-12T08:26:43;38070.03;;;-145.63;46.94
33422;BME280;19763;55.798;37.782;2023-08-12T08:29:11;38109.13;;;-145.63;47.26
33422;BME280;19763;55.798;37.782;2023-08-12T08:31:37;38075.91;;;-145.63;46.93
33422;BME280;19763;55.798;37.782;2023-08-12T08:34:02;38128.69;;;-145.63;47.28
33422;BME280;19763;55.798;37.782;2023-08-12T08:36:28;38120.88;;;-145.63;47.98
33422;BME280;19763;55.798;37.782;2023-08-12T08:38:54;38159.97;;;-145.63;47.72
33422;BME280;19763;55.798;37.782;2023-08-12T08:41:20;38165.84;;;-145.63;47.52
33422;BME280;19763;55.798;37.782;2023-08-12T08:43:48;38154.09;;;-145.63;47.72
33422;BME280;19763;55.798;37.782;2023-08-12T08:46:16;38165.84;;;-145.63;47.55
33422;BME280;19763;55.798;37.782;2023-08-12T08:48:43;38132.59;;;-145.63;47.48
33422;BME280;19763;55.798;37.782;2023-08-12T08:51:11;38005.50;;;-145.63;47.28
33422;BME280;19763;55.798;37.782;2023-08-12T08:53:38;38077.84;;;-145.63;47.70
33422;BME280;19763;55.798;37.782;2023-08-12T08:56:08;38113.03;;;-145.63;47.88
33422;BME280;19763;55.798;37.782;2023-08-12T08:58:38;37806.09;;;-145.63;47.88
33422;BME280;19763;55.798;37.782;2023-08-12T09:01:05;38089.56;;;-145.63;47.83
33422;BME280;19763;55.798;37.782;2023-08-12T09:03:33;38120.88;;;-145.63;49.06
33422;BME280;19763;55.798;37.782;2023-08-12T09:05:59;38120.88;;;-145.63;47.95
33422;BME280;19763;55.798;37.782;2023-08-12T09:08:25;38167.78;;;-145.63;47.00
33422;BME280;19763;55.798;37.782;2023-08-12T09:10:53;38159.97;;;-145.63;47.46
33422;BME280;19763;55.798;37.782;2023-08-12T09:13:20;38156.06;;;-145.63;46.95
33422;BME280;19763;55.798;37.782;2023-08-12T09:15:45;38171.69;;;-145.63;47.30
33422;BME280;19763;55.798;37.782;2023-08-12T09:18:11;38173.66;;;-145.63;47.47
33422;BME280;19763;55.798;37.782;2023-08-12T09:20:37;38206.88;;;-145.63;47.48
33422;BME280;19763;55.798;37.782;2023-08-12T09:23:03;38185.38;;;-145.63;47.32
33422;BME280;19763;55.798;37.782;2023-08-12T09:25:29;38199.06;;;-145.63;47.34
33422;BME280;19763;55.798;37.782;2023-08-12T09:27:58;38265.53;;;-145.63;47.85
33422;BME280;19763;55.798;37.782;2023-08-12T09:30:28;38255.78;;;-145.63;47.89
33422;BME280;19763;55.798;37.782;2023-08-12T09:32:59;38238.16;;;-145.63;47.74
33422;BME280;19763;55.798;37.782;2023-08-12T09:35:35;38271.41;;;-145.63;48.57
33422;BME280;19763;55.798;37.782;2023-08-12T09:38:06;38234.25;;;-145.63;48.79
33422;BME280;19763;55.798;37.782;2023-08-12T09:40:34;38287.06;;;-145.63;48.96
33422;BME280;19763;55.798;37.782;2023-08-12T09:43:00;38281.19;;;-145.63;49.10
33422;BME280;19763;55.798;37.782;2023-08-12T09:45:26;38234.25;;;-145.63;49.44
33422;BME280;19763;55.798;37.782;2023-08-12T09:47:53;38292.91;;;-145.63;49.69
33422;BME280;19763;55.798;37.782;2023-08-12T09:50:22;38263.59;;;-145.63;50.03
33422;BME280;19763;55.798;37.782;2023-08-12T09:52:50;38308.56;;;-145.63;49.50
33422;BME280;19763;55.798;37.782;2023-08-12T09:55:17;38255.78;;;-145.63;49.69
33422;BME280;19763;55.798;37.782;2023-08-12T09:57:48;38300.75;;;-145.63;49.95
33422;BME280;19763;55.798;37.782;2023-08-12T10:00:16;38261.63;;;-145.63;49.54
33422;BME280;19763;55.798;37.782;2023-08-12T10:02:44;38318.34;;;-145.63;49.53
33422;BME280;19763;55.798;37.782;2023-08-12T10:05:28;38353.53;;;-145.63;50.25
33422;BME280;19763;55.798;37.782;2023-08-12T10:07:56;38300.75;;;-145.63;49.86
33422;BME280;19763;55.798;37.782;2023-08-12T10:10:21;38261.63;;;-145.63;50.35
33422;BME280;19763;55.798;37.782;2023-08-12T10:12:51;38281.19;;;-145.63;50.57
33422;BME280;19763;55.798;37.782;2023-08-12T10:15:17;38322.25;;;-145.63;50.33
33422;BME280;19763;55.798;37.782;2023-08-12T10:17:43;38283.16;;;-145.63;50.88
33422;BME280;19763;55.798;37.782;2023-08-12T10:20:16;38363.31;;;-145.63;50.80
33422;BME280;19763;55.798;37.782;2023-08-12T10:22:46;38335.94;;;-145.63;51.34
33422;BME280;19763;55.798;37.782;2023-08-12T10:25:13;38347.66;;;-145.63;51.89
33422;BME280;19763;55.798;37.782;2023-08-12T10:27:39;38308.56;;;-145.63;51.40
33422;BME280;19763;55.798;37.782;2023-08-12T10:30:06;38382.88;;;-145.63;52.33
33422;BME280;19763;55.798;37.782;2023-08-12T10:32:33;38355.50;;;-145.63;51.99
33422;BME280;19763;55.798;37.782;2023-08-12T10:35:00;38320.28;;;-145.63;52.31
33422;BME280;19763;55.798;37.782;2023-08-12T10:37:26;38363.31;;;-145.63;53.01
33422;BME280;19763;55.798;37.782;2023-08-12T10:39:54;38351.56;;;-145.63;52.38
33422;BME280;19763;55.798;37.782;2023-08-12T10:42:48;38310.50;;;-145.63;52.52
33422;BME280;19763;55.798;37.782;2023-08-12T10:45:16;38351.56;;;-145.63;52.57
33422;BME280;19763;55.798;37.782;2023-08-12T10:47:47;38333.97;;;-145.63;52.48
33422;BME280;19763;55.798;37.782;2023-08-12T10:50:17;38300.75;;;-145.63;52.34
33422;BME280;19763;55.798;37.782;2023-08-12T10:52:43;38285.09;;;-145.63;52.38
33422;BME280;19763;55.798;37.782;2023-08-12T10:55:24;38296.81;;;-145.63;52.29
33422;BME280;19763;55.798;37.782;2023-08-12T10:57:51;38265.53;;;-145.63;52.65
33422;BME280;19763;55.798;37.782;2023-08-12T11:02:53;38292.91;;;-145.63;52.90
33422;BME280;19763;55.798;37.782;2023-08-12T11:05:20;38314.44;;;-145.63;52.67
33422;BME280;19763;55.798;37.782;2023-08-12T11:07:59;38267.50;;;-145.63;52.81
33422;BME280;19763;55.798;37.782;2023-08-12T11:10:30;38330.06;;;-145.63;52.83
33422;BME280;19763;55.798;37.782;2023-08-12T11:12:57;38382.88;;;-145.63;52.75
33422;BME280;19763;55.798;37.782;2023-08-12T11:15:45;38347.66;;;-145.63;52.88
33422;BME280;19763;55.798;37.782;2023-08-12T11:18:17;38246.00;;;-145.63;52.83
33422;BME280;19763;55.798;37.782;2023-08-12T11:20:47;38333.97;;;-145.63;52.72
33422;BME280;19763;55.798;37.782;2023-08-12T11:23:12;38363.31;;;-145.63;52.96
33422;BME280;19763;55.798;37.782;2023-08-12T11:25:42;38345.72;;;-145.63;52.44
33422;BME280;19763;55.798;37.782;2023-08-12T11:28:08;38287.06;;;-145.63;51.99
33422;BME280;19763;55.798;37.782;2023-08-12T11:30:34;38273.38;;;-145.63;52.26
33422;BME280;19763;55.798;37.782;2023-08-12T11:33:01;38267.50;;;-145.63;53.03
33422;BME280;19763;55.798;37.782;2023-08-12T11:35:27;38249.91;;;-145.63;53.51
33422;BME280;19763;55.798;37.782;2023-08-12T11:37:55;38296.81;;;-145.63;53.96
33422;BME280;19763;55.798;37.782;2023-08-12T11:40:25;38255.78;;;-145.63;53.39
33422;BME280;19763;55.798;37.782;2023-08-12T11:42:52;38304.66;;;-145.63;53.16
33422;BME280;19763;55.798;37.782;2023-08-12T11:45:20;38277.28;;;-145.63;53.47
33422;BME280;19763;55.798;37.782;2023-08-12T11:47:46;38384.81;;;-145.63;54.46
33422;BME280;19763;55.798;37.782;2023-08-12T11:50:20;38425.88;;;-145.63;54.10
33422;BME280;19763;55.798;37.782;2023-08-12T11:52:47;38345.72;;;-145.63;54.71
33422;BME280;19763;55.798;37.782;2023-08-12T11:55:13;38355.50;;;-145.63;54.95
33422;BME280;19763;55.798;37.782;2023-08-12T11:57:40;38402.41;;;-145.63;55.09
33422;BME280;19763;55.798;37.782;2023-08-12T12:00:09;37833.47;;;-145.63;54.53
33422;BME280;19763;55.798;37.782;2023-08-12T12:02:49;38437.59;;;-145.63;55.29
33422;BME280;19763;55.798;37.782;2023-08-12T12:05:16;38388.72;;;-145.63;55.65
33422;BME280;19763;55.798;37.782;2023-08-12T12:07:42;38425.88;;;-145.63;55.61
33422;BME280;19763;55.798;37.782;2023-08-12T12:10:13;38373.09;;;-145.63;56.29
33422;BME280;19763;55.798;37.782;2023-08-12T12:12:40;38425.88;;;-145.63;56.19
33422;BME280;19763;55.798;37.782;2023-08-12T12:15:07;38402.41;;;-145.63;56.62
33422;BME280;19763;55.798;37.782;2023-08-12T12:17:38;38427.84;;;-145.63;57.51
33422;BME280;19763;55.798;37.782;2023-08-12T12:20:07;38431.75;;;-145.63;58.08
33422;BME280;19763;55.798;37.782;2023-08-12T12:22:36;38400.47;;;-145.63;59.01
33422;BME280;19763;55.798;37.782;2023-08-12T12:25:07;38451.28;;;-145.63;58.97
33422;BME280;19763;55.798;37.782;2023-08-12T12:27:34;38453.25;;;-145.63;57.84
33422;BME280;19763;55.798;37.782;2023-08-12T12:30:00;38433.69;;;-145.63;58.28
33422;BME280;19763;55.798;37.782;2023-08-12T12:32:29;38429.78;;;-145.63;58.91
33422;BME280;19763;55.798;37.782;2023-08-12T12:34:55;38511.91;;;-145.63;59.56
33422;BME280;19763;55.798;37.782;2023-08-12T12:37:21;38554.94;;;-145.63;59.84